createdAt,value
2019-06-26T00:05:05.959Z,21.60
2019-06-26T00:07:32.495Z,22.10
2019-06-26T00:09:59.013Z,21.90
2019-06-26T00:12:25.685Z,21.80
2019-06-26T00:14:52.256Z,21.70
2019-06-26T00:17:18.712Z,21.70
2019-06-26T00:19:45.194Z,21.60
2019-06-26T00:22:11.790Z,21.60
2019-06-26T00:27:05.239Z,21.50
2019-06-26T00:29:31.707Z,21.50
2019-06-26T00:31:58.238Z,21.50
2019-06-26T00:34:24.759Z,21.40
2019-06-26T00:36:51.261Z,21.40
2019-06-26T00:39:17.689Z,21.40
2019-06-26T00:41:44.185Z,21.40
2019-06-26T00:44:10.599Z,21.30
2019-06-26T00:46:37.049Z,21.30
2019-06-26T00:49:03.603Z,21.20
2019-06-26T00:51:30.172Z,21.20
2019-06-26T00:53:57.343Z,21.20
2019-06-26T00:56:23.839Z,21.10
2019-06-26T00:58:50.331Z,21.10
2019-06-26T01:01:16.926Z,21.10
2019-06-26T01:03:43.393Z,21.00
2019-06-26T01:06:11.866Z,21.00
2019-06-26T01:08:38.465Z,21.00
2019-06-26T01:11:05.042Z,20.90
2019-06-26T01:13:31.633Z,20.90
2019-06-26T01:15:58.309Z,20.90
2019-06-26T01:18:24.830Z,20.90
2019-06-26T01:20:51.654Z,20.80
2019-06-26T01:23:18.063Z,20.80
2019-06-26T01:25:44.530Z,20.80
2019-06-26T01:28:11.033Z,20.70
2019-06-26T01:30:37.649Z,20.70
2019-06-26T01:33:04.262Z,20.70
2019-06-26T01:35:30.784Z,20.70
2019-06-26T01:37:57.303Z,20.60
2019-06-26T01:40:23.953Z,20.60
2019-06-26T01:42:50.384Z,20.60
2019-06-26T01:45:16.993Z,20.50
2019-06-26T01:47:43.709Z,20.50
2019-06-26T01:50:10.302Z,20.40
2019-06-26T01:52:36.802Z,20.40
2019-06-26T01:55:06.618Z,20.40
2019-06-26T01:57:33.147Z,20.40
2019-06-26T01:59:59.584Z,20.40
2019-06-26T02:02:26.199Z,20.30
2019-06-26T02:04:52.625Z,20.30
2019-06-26T02:07:19.147Z,20.30
2019-06-26T02:09:45.530Z,20.20
2019-06-26T02:12:12.078Z,20.20
2019-06-26T02:14:38.787Z,20.20
2019-06-26T02:17:05.203Z,20.20
2019-06-26T02:19:31.799Z,20.20
2019-06-26T02:21:58.333Z,20.20
2019-06-26T02:24:24.628Z,20.20
2019-06-26T02:26:51.123Z,20.20
2019-06-26T02:29:17.555Z,20.10
2019-06-26T02:31:44.753Z,20.10
2019-06-26T02:34:11.193Z,20.10
2019-06-26T02:36:37.494Z,20.00
2019-06-26T02:39:05.510Z,20.00
2019-06-26T02:41:32.026Z,19.90
2019-06-26T02:43:58.584Z,19.90
2019-06-26T02:46:24.971Z,19.90
2019-06-26T02:48:51.519Z,19.80
2019-06-26T02:51:18.006Z,19.80
2019-06-26T02:53:44.495Z,19.80
2019-06-26T02:56:11.147Z,19.80
2019-06-26T02:58:37.595Z,19.70
2019-06-26T03:01:04.182Z,19.70
2019-06-26T03:03:30.673Z,19.60
2019-06-26T03:05:57.106Z,19.60
2019-06-26T03:08:23.516Z,19.60
2019-06-26T03:10:50.006Z,19.50
2019-06-26T03:13:16.561Z,19.50
2019-06-26T03:15:43.099Z,19.40
2019-06-26T03:18:09.883Z,19.40
2019-06-26T03:20:46.080Z,19.40
2019-06-26T03:23:12.589Z,19.30
2019-06-26T03:25:39.163Z,19.30
2019-06-26T03:28:05.710Z,19.30
2019-06-26T03:30:32.142Z,19.30
2019-06-26T03:32:58.735Z,19.30
2019-06-26T03:35:25.135Z,19.30
2019-06-26T03:37:51.546Z,19.30
2019-06-26T03:40:18.177Z,19.30
2019-06-26T03:42:44.727Z,19.30
2019-06-26T03:45:25.183Z,19.30
2019-06-26T03:47:40.063Z,19.30
2019-06-26T03:50:07.680Z,19.30
2019-06-26T03:52:34.051Z,19.40
2019-06-26T03:55:00.445Z,19.40
2019-06-26T03:57:27.048Z,19.40
2019-06-26T03:59:53.554Z,19.40
2019-06-26T04:02:20.181Z,19.50
2019-06-26T04:04:46.581Z,19.50
2019-06-26T04:07:12.997Z,19.50
2019-06-26T04:09:39.282Z,19.50
2019-06-26T04:12:05.818Z,19.60
2019-06-26T04:14:32.328Z,19.60
2019-06-26T04:16:58.961Z,19.60
2019-06-26T04:19:25.273Z,19.70
2019-06-26T04:21:52.087Z,19.70
2019-06-26T04:24:18.373Z,19.70
2019-06-26T04:26:44.761Z,19.80
2019-06-26T04:29:11.331Z,19.90
2019-06-26T04:31:37.860Z,19.90
2019-06-26T04:34:04.341Z,20.00
2019-06-26T04:36:30.789Z,20.10
2019-06-26T04:38:57.102Z,20.10
2019-06-26T04:41:23.481Z,20.20
2019-06-26T04:43:49.990Z,20.30
2019-06-26T04:46:16.536Z,20.30
2019-06-26T04:48:42.868Z,20.40
2019-06-26T04:51:09.376Z,20.50
2019-06-26T04:53:35.801Z,20.60
2019-06-26T04:56:02.425Z,20.70
2019-06-26T04:58:28.796Z,20.80
2019-06-26T05:00:55.417Z,20.90
2019-06-26T05:03:21.764Z,20.90
2019-06-26T05:05:48.149Z,21.00
2019-06-26T05:08:14.702Z,21.00
2019-06-26T05:10:41.209Z,21.10
2019-06-26T05:13:07.508Z,21.20
2019-06-26T05:15:34.195Z,21.30
2019-06-26T05:18:00.700Z,21.40
2019-06-26T05:20:27.059Z,21.50
2019-06-26T05:22:53.458Z,21.50
2019-06-26T05:25:20.015Z,21.60
2019-06-26T05:27:46.513Z,21.70
2019-06-26T05:30:14.219Z,21.70
2019-06-26T05:32:40.872Z,21.80
2019-06-26T05:35:08.158Z,21.90
2019-06-26T05:37:34.716Z,22.00
2019-06-26T05:40:01.476Z,22.10
2019-06-26T05:42:28.105Z,22.20
2019-06-26T05:44:54.623Z,22.30
2019-06-26T05:47:22.142Z,22.50
2019-06-26T05:49:48.659Z,22.60
2019-06-26T05:52:16.696Z,22.70
2019-06-26T05:54:43.475Z,22.80
2019-06-26T05:57:09.743Z,22.90
2019-06-26T05:59:36.167Z,23.00
2019-06-26T06:02:02.686Z,23.10
2019-06-26T06:04:29.205Z,23.20
2019-06-26T06:06:56.110Z,23.30
2019-06-26T06:09:22.625Z,23.40
2019-06-26T06:11:49.225Z,23.50
2019-06-26T06:14:15.638Z,23.60
2019-06-26T06:16:47.423Z,23.70
2019-06-26T06:19:10.382Z,23.80
2019-06-26T06:24:04.249Z,24.00
2019-06-26T06:26:30.567Z,24.10
2019-06-26T06:28:57.068Z,24.20
2019-06-26T06:31:23.479Z,24.20
2019-06-26T06:33:49.858Z,24.40
2019-06-26T11:30:12.484Z,32.90
2019-06-26T11:32:39.128Z,32.90
2019-06-26T11:35:06.564Z,33.00
2019-06-26T11:37:33.075Z,33.10
2019-06-26T11:39:59.911Z,33.20
2019-06-26T11:42:26.372Z,33.30
2019-06-26T11:44:52.781Z,33.30
2019-06-26T11:47:19.210Z,33.30
2019-06-26T11:49:59.042Z,33.30
2019-06-26T11:52:14.094Z,33.40
2019-06-26T11:54:40.602Z,33.40
2019-06-26T11:57:07.278Z,33.40
2019-06-26T11:59:33.766Z,33.50
2019-06-26T12:02:00.362Z,33.50
2019-06-26T12:04:26.861Z,33.50
2019-06-26T12:06:53.474Z,33.50
2019-06-26T12:09:20.130Z,33.60
2019-06-26T12:11:46.621Z,33.60
2019-06-26T12:14:13.118Z,33.70
2019-06-26T12:16:39.656Z,33.70
2019-06-26T12:19:06.198Z,33.80
2019-06-26T12:21:33.440Z,33.90
2019-06-26T12:23:59.944Z,34.00
2019-06-26T12:26:26.577Z,34.00
2019-06-26T12:28:52.998Z,34.10
2019-06-26T12:31:19.432Z,34.10
2019-06-26T12:33:46.386Z,34.20
2019-06-26T12:36:12.771Z,34.20
2019-06-26T12:38:39.101Z,34.30
2019-06-26T12:41:05.916Z,34.30
2019-06-26T12:43:32.391Z,34.40
2019-06-26T12:45:58.928Z,34.50
2019-06-26T12:48:25.385Z,34.50
2019-06-26T12:50:51.797Z,34.60
2019-06-26T12:53:18.255Z,34.70
2019-06-26T12:55:44.564Z,34.80
2019-06-26T12:58:13.920Z,34.80
2019-06-26T13:00:39.278Z,34.90
2019-06-26T13:03:05.900Z,35.00
2019-06-26T13:05:32.350Z,35.10
2019-06-26T13:07:58.789Z,35.10
2019-06-26T13:10:25.495Z,35.20
2019-06-26T13:12:52.138Z,35.20
2019-06-26T13:15:18.630Z,35.30
2019-06-26T13:17:45.187Z,35.30
2019-06-26T13:20:11.765Z,35.30
2019-06-26T13:22:38.358Z,35.40
2019-06-26T13:25:05.419Z,35.40
2019-06-26T13:27:32.025Z,35.50
2019-06-26T13:29:58.554Z,35.50
2019-06-26T13:32:25.074Z,35.70
2019-06-26T13:34:51.445Z,35.80
2019-06-26T13:37:17.858Z,35.90
2019-06-26T13:39:44.309Z,35.90
2019-06-26T13:42:10.752Z,36.00
2019-06-26T13:44:37.254Z,36.10
2019-06-26T13:47:03.705Z,36.30
2019-06-26T13:49:30.292Z,36.40
2019-06-26T13:51:56.878Z,36.50
2019-06-26T13:54:23.425Z,36.60
2019-06-26T13:56:49.823Z,36.80
2019-06-26T13:59:16.951Z,36.90
2019-06-26T14:01:43.437Z,37.10
2019-06-26T14:04:09.849Z,37.40
2019-06-26T14:16:25.603Z,40.70
2019-06-26T14:18:52.322Z,41.20
2019-06-26T14:21:25.763Z,41.70
2019-06-26T14:23:47.205Z,42.20
2019-06-26T14:26:13.566Z,42.70
2019-06-26T14:28:39.914Z,43.20
2019-06-26T14:31:06.295Z,43.50
2019-06-26T14:33:32.697Z,43.80
2019-06-26T14:35:59.132Z,44.00
2019-06-26T14:38:25.665Z,44.10
2019-06-26T14:40:52.248Z,44.30
2019-06-26T14:43:18.626Z,44.50
2019-06-26T14:45:45.058Z,44.80
2019-06-26T14:48:11.498Z,45.10
2019-06-26T14:50:38.119Z,45.40
2019-06-26T14:53:04.688Z,45.70
2019-06-26T14:55:31.245Z,45.80
2019-06-26T14:57:59.063Z,45.90
2019-06-26T15:00:25.550Z,45.80
2019-06-26T15:02:51.975Z,46.00
2019-06-26T15:05:18.594Z,46.20
2019-06-26T15:07:45.134Z,46.20
2019-06-26T15:10:12.002Z,46.40
2019-06-26T15:12:38.583Z,46.60
2019-06-26T15:15:05.880Z,46.80
2019-06-26T15:17:32.505Z,46.90
2019-06-26T15:19:58.981Z,46.90
2019-06-26T15:22:25.354Z,46.90
2019-06-26T15:24:52.080Z,47.00
2019-06-26T15:27:18.539Z,47.30
2019-06-26T15:29:45.040Z,47.70
2019-06-26T15:32:11.594Z,47.90
2019-06-26T15:34:38.122Z,48.10
2019-06-26T15:37:04.527Z,48.30
2019-06-26T15:39:30.855Z,48.40
2019-06-26T15:41:57.161Z,48.60
2019-06-26T15:44:23.549Z,48.70
2019-06-26T15:46:50.010Z,48.90
2019-06-26T15:49:16.505Z,49.10
2019-06-26T15:51:42.956Z,49.30
2019-06-26T15:54:09.339Z,49.40
2019-06-26T15:56:35.879Z,49.40
2019-06-26T15:59:02.474Z,49.50
2019-06-26T16:01:28.786Z,49.70
2019-06-26T16:03:55.325Z,49.80
2019-06-26T16:06:21.794Z,49.80
2019-06-26T16:08:48.225Z,49.80
2019-06-26T16:11:14.774Z,49.80
2019-06-26T16:13:41.255Z,49.80
2019-06-26T16:16:07.701Z,49.90
2019-06-26T16:18:36.125Z,50.00
2019-06-26T16:21:03.463Z,50.00
2019-06-26T16:23:29.927Z,50.10
2019-06-26T16:25:56.456Z,50.20
2019-06-26T16:28:22.983Z,50.20
2019-06-26T16:30:49.406Z,50.30
2019-06-26T16:33:15.827Z,50.40
2019-06-26T16:35:42.375Z,50.30
2019-06-26T16:38:08.778Z,50.40
2019-06-26T16:40:35.189Z,50.30
2019-06-26T16:43:01.770Z,50.20
2019-06-26T16:45:28.306Z,50.10
2019-06-26T16:47:54.815Z,49.90
2019-06-26T16:50:21.368Z,49.80
2019-06-26T16:52:49.641Z,49.70
2019-06-26T16:55:16.259Z,49.50
2019-06-26T16:57:43.014Z,49.40
2019-06-26T17:00:10.533Z,49.20
2019-06-26T17:02:37.145Z,49.00
2019-06-26T17:05:05.796Z,49.00
2019-06-26T17:07:32.677Z,48.90
2019-06-26T17:09:58.977Z,48.80
2019-06-26T17:12:25.654Z,48.70
2019-06-26T17:14:52.064Z,48.60
2019-06-26T17:17:18.485Z,48.60
2019-06-26T17:19:44.923Z,48.60
2019-06-26T17:22:11.521Z,48.50
2019-06-26T17:24:37.787Z,48.40
2019-06-26T17:27:04.314Z,48.30
2019-06-26T17:29:30.959Z,48.20
2019-06-26T17:31:57.539Z,48.10
2019-06-26T17:34:27.138Z,48.00
2019-06-26T17:36:52.706Z,48.10
2019-06-26T17:39:19.246Z,48.00
2019-06-26T17:41:45.648Z,48.00
2019-06-26T17:44:12.069Z,47.90
2019-06-26T17:46:38.661Z,47.80
2019-06-26T17:49:05.340Z,47.60
2019-06-26T17:51:31.746Z,47.40
2019-06-26T17:53:58.270Z,47.40
2019-06-26T17:56:24.662Z,47.30
2019-06-26T17:58:51.095Z,47.30
2019-06-26T18:01:17.465Z,47.20
2019-06-26T18:03:43.858Z,47.00
2019-06-26T18:06:10.391Z,46.80
2019-06-26T18:08:36.796Z,46.60
2019-06-26T18:11:03.323Z,46.30
2019-06-26T18:13:29.854Z,46.00
2019-06-26T18:15:56.375Z,45.60
2019-06-26T18:18:23.104Z,45.30
2019-06-26T18:20:49.645Z,44.80
2019-06-26T18:23:15.977Z,44.10
2019-06-26T18:25:42.539Z,43.40
2019-06-26T18:28:08.859Z,42.60
2019-06-26T18:33:02.025Z,40.80
2019-06-26T18:35:28.499Z,40.60
2019-06-26T18:37:54.966Z,40.10
2019-06-26T18:40:21.338Z,39.60
2019-06-26T18:42:47.836Z,39.20
2019-06-26T18:45:14.857Z,38.70
2019-06-26T18:47:41.529Z,38.30
2019-06-26T18:52:34.832Z,37.50
2019-06-26T18:55:01.684Z,37.20
2019-06-26T18:57:28.513Z,36.80
2019-06-26T18:59:55.919Z,36.50
2019-06-26T19:02:22.331Z,36.20
2019-06-26T19:04:48.860Z,35.90
2019-06-26T19:07:15.333Z,35.70
2019-06-26T19:09:42.253Z,35.30
2019-06-26T19:12:08.879Z,35.10
2019-06-26T19:14:35.338Z,34.80
2019-06-26T19:17:01.767Z,34.50
2019-06-26T19:19:28.079Z,34.30
2019-06-26T19:21:54.528Z,34.10
2019-06-26T19:24:21.105Z,33.90
2019-06-26T19:26:47.971Z,33.70
2019-06-26T19:29:14.401Z,33.40
2019-06-26T19:31:40.945Z,33.20
2019-06-26T19:34:07.991Z,33.00
2019-06-26T19:36:48.982Z,32.80
2019-06-26T19:39:04.995Z,32.60
2019-06-26T19:41:31.367Z,32.50
2019-06-26T19:43:57.886Z,32.30
2019-06-26T19:46:24.448Z,32.10
2019-06-26T19:48:50.870Z,31.90
2019-06-26T19:51:17.249Z,31.70
2019-06-26T19:53:43.942Z,31.60
2019-06-26T19:56:10.352Z,31.40
2019-06-26T19:58:37.170Z,31.30
2019-06-26T20:01:03.896Z,31.20
2019-06-26T20:03:30.302Z,31.00
2019-06-26T20:05:56.839Z,30.90
2019-06-26T20:08:23.397Z,30.70
2019-06-26T20:10:49.792Z,30.60
2019-06-26T20:13:16.415Z,30.50
2019-06-26T20:15:42.816Z,30.40
2019-06-26T20:18:09.321Z,30.20
2019-06-26T20:20:35.684Z,30.00
2019-06-26T20:23:02.330Z,29.90
2019-06-26T20:25:29.168Z,29.80
2019-06-26T20:27:57.185Z,29.60
2019-06-26T20:30:27.525Z,29.50
2019-06-26T20:32:53.845Z,29.40
2019-06-26T20:35:20.355Z,29.20
2019-06-26T20:37:46.678Z,29.10
2019-06-26T20:40:13.310Z,29.00
2019-06-26T20:42:39.918Z,28.90
2019-06-26T20:45:07.180Z,28.80
2019-06-26T20:47:33.641Z,28.70
2019-06-26T20:50:00.212Z,28.60
2019-06-26T20:52:27.083Z,28.50
2019-06-26T20:55:01.345Z,28.50
2019-06-26T20:57:21.622Z,28.40
2019-06-26T20:59:48.092Z,28.40
2019-06-26T21:02:14.706Z,28.30
2019-06-26T21:04:41.145Z,28.20
2019-06-26T21:07:07.735Z,28.10
2019-06-26T21:09:34.350Z,28.00
2019-06-26T21:12:00.854Z,27.90
2019-06-26T21:14:27.138Z,27.80
2019-06-26T21:16:53.691Z,27.70
2019-06-26T21:19:20.114Z,27.60
2019-06-26T21:21:46.647Z,27.50
2019-06-26T21:24:13.055Z,27.50
2019-06-26T21:26:39.464Z,27.40
2019-06-26T21:29:05.961Z,27.40
2019-06-26T21:31:32.543Z,27.30
2019-06-26T21:33:59.036Z,27.20
2019-06-26T21:38:52.264Z,27.10
2019-06-26T21:41:18.638Z,27.00
2019-06-26T21:43:46.112Z,26.90
2019-06-26T21:46:12.507Z,26.90
2019-06-26T21:48:38.919Z,26.90
2019-06-26T21:55:58.922Z,26.70
2019-06-26T21:58:25.338Z,26.60
2019-06-26T22:00:51.879Z,26.60
2019-06-26T22:03:18.830Z,26.60
2019-06-26T22:05:45.379Z,26.50
2019-06-26T22:08:11.875Z,26.40
2019-06-26T22:10:38.356Z,26.40
2019-06-26T22:13:04.755Z,26.30
2019-06-26T22:15:31.163Z,26.30
2019-06-26T22:17:57.610Z,26.20
2019-06-26T22:20:24.203Z,26.20
2019-06-26T22:22:50.728Z,26.20
2019-06-26T22:25:17.276Z,26.10
2019-06-26T22:27:43.678Z,26.10
2019-06-26T22:30:10.704Z,26.00
2019-06-26T22:32:37.239Z,26.00
2019-06-26T22:35:05.741Z,26.00
2019-06-26T22:37:32.279Z,26.00
2019-06-26T22:39:58.812Z,25.90
2019-06-26T22:42:25.209Z,25.90
2019-06-26T22:44:51.785Z,25.80
2019-06-26T22:47:18.196Z,25.80
2019-06-26T22:49:44.719Z,25.70
2019-06-26T22:52:11.382Z,25.70
2019-06-26T22:54:38.730Z,25.60
2019-06-26T22:59:31.869Z,25.50
2019-06-26T23:01:58.276Z,25.50
2019-06-26T23:04:24.762Z,25.50
2019-06-26T23:06:51.262Z,25.40
2019-06-26T23:09:17.714Z,25.40
2019-06-26T23:11:44.236Z,25.30
2019-06-26T23:16:37.578Z,25.20
2019-06-26T23:21:30.843Z,25.10
2019-06-26T23:23:57.276Z,25.10
